Time;durP1;ratioP1;P1;durP2;ratioP2;P2;SDS_P1;SDS_P2;PMS_P1;PMS_P2;Temp;Humidity;BMP_temperature;BMP_pressure;BME280_temperature;BME280_humidity;BME280_pressure;Samples;Min_cycle;Max_cycle;Signal;HPM_P1;HPM_P2
2021/04/13 00:02:39;;;;;;;3.92;3.35;;;13.10;66.70;;;;;;5053181;28;20196;-68
2021/04/13 00:05:41;;;;;;;12.25;3.47;;;13.10;66.90;;;;;;5058781;28;20199;-68
2021/04/13 00:08:12;;;;;;;3.30;3.03;;;13.10;67.20;;;;;;5006365;28;20204;-68
2021/04/13 00:10:50;;;;;;;4.45;4.03;;;13.10;66.90;;;;;;4988374;28;20284;-68
2021/04/13 00:13:16;;;;;;;6.32;4.47;;;13.10;68.00;;;;;;5004377;28;20262;-68
2021/04/13 00:15:48;;;;;;;8.90;5.53;;;13.00;68.90;;;;;;5004530;28;20188;-68
2021/04/13 00:18:17;;;;;;;8.52;5.25;;;13.00;70.00;;;;;;5003367;28;20360;-68
2021/04/13 00:21:01;;;;;;;6.45;5.20;;;13.00;70.40;;;;;;5005975;28;20184;-68
2021/04/13 00:23:28;;;;;;;9.40;5.07;;;12.90;70.30;;;;;;5003791;28;20184;-68
2021/04/13 00:25:57;;;;;;;10.80;5.47;;;12.90;70.00;;;;;;5004025;28;20302;-68
2021/04/13 00:28:34;;;;;;;9.77;5.40;;;12.90;70.40;;;;;;5004315;28;20189;-67
2021/04/13 00:31:03;;;;;;;7.00;5.18;;;12.90;69.90;;;;;;5005849;28;20207;-67
2021/04/13 00:33:31;;;;;;;9.02;5.57;;;12.90;70.60;;;;;;5005399;28;20216;-68
2021/04/13 00:36:09;;;;;;;6.10;4.50;;;12.90;70.50;;;;;;5004937;28;20346;-68
2021/04/13 00:38:35;;;;;;;4.90;4.07;;;12.80;69.50;;;;;;5001873;28;20281;-68
2021/04/13 00:41:23;;;;;;;4.65;3.67;;;12.80;69.90;;;;;;4999574;28;20272;-68
2021/04/13 00:44:05;;;;;;;5.20;4.35;;;12.80;69.70;;;;;;5021784;28;20217;-68
2021/04/13 00:47:00;;;;;;;7.35;4.30;;;12.70;69.80;;;;;;5093472;28;20177;-68
2021/04/13 00:49:29;;;;;;;6.32;4.00;;;12.70;69.80;;;;;;5033035;28;20197;-68
2021/04/13 00:52:10;;;;;;;5.72;4.25;;;12.70;69.60;;;;;;5032764;28;20242;-68
2021/04/13 00:54:42;;;;;;;5.18;4.38;;;12.70;69.40;;;;;;5033539;28;20234;-68
2021/04/13 00:57:27;;;;;;;7.40;4.30;;;12.80;69.10;;;;;;5030293;28;20207;-68
2021/04/13 00:59:56;;;;;;;4.28;3.95;;;12.90;69.30;;;;;;5030850;28;20200;-68
2021/04/13 01:02:30;;;;;;;4.03;3.75;;;12.90;69.60;;;;;;5025229;28;20215;-68
2021/04/13 01:05:15;;;;;;;3.78;3.47;;;12.90;69.90;;;;;;5028034;28;20664;-68
2021/04/13 01:07:52;;;;;;;5.38;3.80;;;12.90;69.20;;;;;;5032093;28;20179;-68
2021/04/13 01:10:30;;;;;;;4.20;3.85;;;13.00;68.90;;;;;;5032065;28;20179;-68
2021/04/13 01:13:09;;;;;;;4.20;3.38;;;13.00;68.70;;;;;;5030359;28;20273;-67
2021/04/13 01:15:37;;;;;;;7.70;3.90;;;13.00;68.90;;;;;;5033195;28;20348;-68
2021/04/13 01:18:06;;;;;;;4.60;4.22;;;13.00;69.00;;;;;;5033916;28;20227;-68
2021/04/13 01:20:43;;;;;;;4.43;4.13;;;13.10;69.70;;;;;;5031943;28;20281;-68
2021/04/13 01:23:17;;;;;;;5.97;3.60;;;13.10;69.30;;;;;;5014412;28;20955;-68
2021/04/13 01:25:54;;;;;;;3.65;3.35;;;13.10;69.10;;;;;;5043330;28;20197;-68
2021/04/13 01:28:40;;;;;;;3.95;3.65;;;13.10;68.80;;;;;;5093035;28;20248;-68
2021/04/13 01:31:12;;;;;;;6.60;3.88;;;13.10;68.80;;;;;;5094753;28;20586;-67
2021/04/13 01:33:53;;;;;;;5.05;3.60;;;13.00;69.10;;;;;;5075308;28;20292;-68
2021/04/13 01:36:22;;;;;;;3.35;3.05;;;13.00;68.30;;;;;;5077242;28;20177;-68
2021/04/13 01:39:12;;;;;;;9.52;3.38;;;13.00;68.70;;;;;;5094763;28;20178;-68
2021/04/13 01:41:58;;;;;;;3.50;3.30;;;13.10;68.80;;;;;;5096755;28;20681;-68
2021/04/13 01:44:39;;;;;;;3.25;3.08;;;13.10;69.10;;;;;;5101239;28;20189;-67
2021/04/13 01:47:07;;;;;;;5.68;4.05;;;13.00;68.50;;;;;;5096225;28;21721;-68
2021/04/13 01:49:45;;;;;;;5.00;2.90;;;13.00;68.70;;;;;;5090830;28;20233;-68
2021/04/13 01:52:15;;;;;;;4.38;3.28;;;13.00;68.30;;;;;;5091734;28;20813;-68
2021/04/13 01:54:41;;;;;;;3.28;3.00;;;13.00;68.90;;;;;;5092681;28;20227;-68
2021/04/13 01:57:18;;;;;;;4.43;3.55;;;13.00;68.70;;;;;;5091920;28;20202;-68
2021/04/13 02:00:22;;;;;;;4.47;3.25;;;13.00;68.30;;;;;;5095043;28;21630;-68
2021/04/13 02:03:04;;;;;;;4.60;3.70;;;13.00;68.30;;;;;;5032253;28;20227;-68
2021/04/13 02:05:31;;;;;;;3.47;3.10;;;13.00;68.10;;;;;;5028464;28;20195;-67
2021/04/13 02:08:07;;;;;;;3.00;2.80;;;13.00;68.10;;;;;;5027956;28;20206;-68
2021/04/13 02:11:00;;;;;;;3.38;3.08;;;13.10;68.10;;;;;;5026141;28;20188;-67
2021/04/13 02:13:31;;;;;;;3.15;2.95;;;13.10;68.50;;;;;;5028409;28;20207;-67
2021/04/13 02:16:02;;;;;;;3.63;3.35;;;13.10;68.00;;;;;;5027837;28;20196;-67
2021/04/13 02:18:45;;;;;;;3.45;3.08;;;13.10;67.80;;;;;;5033083;28;20180;-67
2021/04/13 02:21:29;;;;;;;4.38;2.88;;;13.20;67.90;;;;;;5032906;28;20199;-68
2021/04/13 02:24:07;;;;;;;3.15;3.00;;;13.20;68.50;;;;;;5030743;28;20379;-67
2021/04/13 02:26:38;;;;;;;4.63;2.78;;;13.10;67.80;;;;;;5029620;28;20192;-67
2021/04/13 02:29:04;;;;;;;5.85;3.13;;;13.10;68.00;;;;;;5032196;28;20831;-67
2021/04/13 02:31:37;;;;;;;3.45;3.25;;;13.20;68.10;;;;;;5030884;28;20188;-68
2021/04/13 02:34:34;;;;;;;3.15;2.88;;;13.20;68.30;;;;;;5024899;28;20975;-67
2021/04/13 02:37:12;;;;;;;5.53;3.35;;;13.10;68.80;;;;;;5028087;28;20215;-68
2021/04/13 02:39:39;;;;;;;3.97;3.10;;;13.10;67.90;;;;;;5062703;28;20685;-68
2021/04/13 02:42:13;;;;;;;3.15;2.97;;;13.10;68.00;;;;;;5087023;28;20231;-68
2021/04/13 02:44:39;;;;;;;5.07;3.20;;;13.10;69.00;;;;;;5094661;28;20182;-68
2021/04/13 02:47:10;;;;;;;2.95;2.75;;;13.10;69.30;;;;;;5099240;28;20241;-68
2021/04/13 02:49:40;;;;;;;4.10;3.08;;;13.00;69.80;;;;;;5091928;28;20259;-68
2021/04/13 02:52:13;;;;;;;3.55;3.25;;;13.00;70.10;;;;;;5094730;28;20562;-68
2021/04/13 02:54:43;;;;;;;3.25;3.05;;;13.00;70.70;;;;;;5094346;28;20281;-68
2021/04/13 02:57:21;;;;;;;2.72;2.55;;;13.00;71.90;;;;;;5093025;28;20302;-68
2021/04/13 02:59:47;;;;;;;2.60;2.50;;;13.00;72.70;;;;;;5093333;28;20197;-68
2021/04/13 03:02:31;;;;;;;9.10;3.05;;;13.00;73.40;;;;;;5086543;28;20178;-68
2021/04/13 03:04:57;;;;;;;2.35;2.22;;;13.00;74.50;;;;;;5091981;28;20182;-68
2021/04/13 03:07:27;;;;;;;6.00;1.50;;;12.90;76.30;;;;;;5089769;28;20944;-67
2021/04/13 03:10:06;;;;;;;1.88;1.77;;;12.90;77.00;;;;;;5094436;28;20256;-68
2021/04/13 03:12:36;;;;;;;1.50;1.40;;;12.90;78.20;;;;;;5092359;28;20281;-68
2021/04/13 03:15:04;;;;;;;3.10;1.95;;;12.90;78.60;;;;;;5095935;28;20220;-68
2021/04/13 03:17:32;;;;;;;2.55;1.80;;;12.90;78.50;;;;;;5092056;28;20290;-68
2021/04/13 03:20:11;;;;;;;2.78;1.48;;;12.90;79.30;;;;;;5089870;28;20186;-68
2021/04/13 03:22:38;;;;;;;2.38;2.17;;;12.90;79.00;;;;;;5097106;28;20185;-68
2021/04/13 03:25:08;;;;;;;1.73;1.67;;;13.00;79.40;;;;;;5093879;28;20182;-68
2021/04/13 03:27:35;;;;;;;3.55;2.00;;;13.00;79.40;;;;;;5094695;28;20188;-68
2021/04/13 03:30:38;;;;;;;2.55;2.40;;;13.00;80.80;;;;;;5091590;28;20243;-69
2021/04/13 03:33:25;;;;;;;2.42;2.28;;;12.90;81.30;;;;;;4968931;28;20194;-68
2021/04/13 03:35:51;;;;;;;4.85;2.78;;;12.90;80.70;;;;;;4967376;28;20235;-67
2021/04/13 03:38:23;;;;;;;2.50;1.77;;;12.90;81.70;;;;;;4966820;28;20224;-67
2021/04/13 03:40:50;;;;;;;3.38;2.35;;;12.90;81.10;;;;;;4966543;28;20827;-67
2021/04/13 03:43:23;;;;;;;2.40;1.90;;;12.90;81.10;;;;;;4966978;28;20201;-67
2021/04/13 03:45:53;;;;;;;2.92;1.73;;;12.80;81.30;;;;;;4967844;28;20316;-67
2021/04/13 03:48:25;;;;;;;2.65;2.10;;;12.80;81.60;;;;;;4966169;28;20210;-67
2021/04/13 03:50:58;;;;;;;1.63;1.30;;;12.80;81.20;;;;;;4964681;28;20260;-67
2021/04/13 03:53:37;;;;;;;3.33;2.05;;;12.80;80.90;;;;;;4966746;28;20226;-67
2021/04/13 03:56:07;;;;;;;1.65;1.55;;;12.90;80.80;;;;;;4965065;28;20793;-67
2021/04/13 03:58:37;;;;;;;3.70;1.90;;;12.90;80.80;;;;;;4966181;28;20573;-67
2021/04/13 04:01:03;;;;;;;6.38;1.85;;;12.90;80.70;;;;;;4965268;28;20218;-67
2021/04/13 04:03:34;;;;;;;1.20;1.20;;;12.90;81.00;;;;;;4968159;28;20244;-67
2021/04/13 04:06:01;;;;;;;2.35;1.38;;;12.90;80.70;;;;;;4969793;28;20178;-67
2021/04/13 04:08:42;;;;;;;2.35;1.40;;;12.90;80.40;;;;;;5095886;28;20652;-67
2021/04/13 04:11:09;;;;;;;2.08;1.55;;;12.90;80.00;;;;;;5093534;28;20234;-67
2021/04/13 04:13:50;;;;;;;3.67;1.50;;;13.00;80.00;;;;;;5093018;28;20206;-67
2021/04/13 04:16:34;;;;;;;3.72;1.55;;;13.00;80.60;;;;;;5094523;28;20192;-67
2021/04/13 04:19:14;;;;;;;1.50;1.40;;;13.00;80.80;;;;;;5091066;28;20678;-67
2021/04/13 04:21:42;;;;;;;1.88;1.73;;;13.10;80.60;;;;;;5095186;28;20181;-68
2021/04/13 04:24:26;;;;;;;1.33;1.23;;;13.10;81.70;;;;;;5089794;28;20186;-67
2021/04/13 04:27:03;;;;;;;1.90;1.77;;;13.10;80.70;;;;;;5092171;28;20238;-67
2021/04/13 04:29:29;;;;;;;2.63;2.13;;;13.20;81.30;;;;;;5095284;28;20182;-67
2021/04/13 04:31:56;;;;;;;2.65;2.30;;;13.20;81.30;;;;;;5092089;28;20233;-67
2021/04/13 04:34:22;;;;;;;2.17;1.27;;;13.20;81.70;;;;;;5093479;28;20359;-67
2021/04/13 04:36:53;;;;;;;5.38;1.88;;;13.20;80.90;;;;;;5091723;28;20265;-67
2021/04/13 04:39:32;;;;;;;3.58;1.58;;;13.20;80.50;;;;;;5091054;28;20193;-67
2021/04/13 04:42:06;;;;;;;3.08;2.38;;;13.10;80.70;;;;;;5093046;28;20218;-67
2021/04/13 04:44:32;;;;;;;3.13;1.20;;;13.10;81.20;;;;;;5096074;28;20184;-67
2021/04/13 04:46:59;;;;;;;2.60;1.70;;;13.20;80.30;;;;;;5098767;28;20181;-67
2021/04/13 04:49:39;;;;;;;7.13;2.38;;;13.20;80.30;;;;;;5098984;28;20205;-67
2021/04/13 04:52:05;;;;;;;1.50;1.40;;;13.20;81.00;;;;;;5096591;28;20177;-67
2021/04/13 04:54:31;;;;;;;3.47;1.95;;;13.30;80.40;;;;;;5089150;28;20213;-67
2021/04/13 04:56:57;;;;;;;5.93;2.00;;;13.30;80.00;;;;;;5096782;28;20185;-67
2021/04/13 04:59:22;;;;;;;3.85;2.13;;;13.30;80.40;;;;;;5095324;28;20182;-67
2021/04/13 05:01:49;;;;;;;2.53;2.00;;;13.40;80.40;;;;;;5094171;28;20253;-67
2021/04/13 05:04:14;;;;;;;4.82;2.00;;;13.40;80.10;;;;;;5093689;28;20181;-67
2021/04/13 05:06:40;;;;;;;4.22;2.00;;;13.50;80.60;;;;;;5095912;28;20188;-67
2021/04/13 05:09:06;;;;;;;3.15;2.90;;;13.50;80.40;;;;;;5092856;28;20296;-67
2021/04/13 05:11:31;;;;;;;3.95;2.75;;;13.60;80.40;;;;;;5094521;28;21796;-68
2021/04/13 05:13:57;;;;;;;5.88;2.72;;;13.60;80.40;;;;;;5092270;28;20267;-68
2021/04/13 05:16:24;;;;;;;6.75;3.03;;;13.70;80.60;;;;;;5099552;28;20178;-67
2021/04/13 05:18:49;;;;;;;6.53;2.53;;;13.70;81.00;;;;;;5095999;28;20189;-66
2021/04/13 05:21:16;;;;;;;4.90;2.47;;;13.70;80.20;;;;;;5091699;28;20608;-66
2021/04/13 05:23:42;;;;;;;2.95;2.65;;;13.70;80.30;;;;;;5090309;28;20182;-66
2021/04/13 05:26:08;;;;;;;2.95;2.72;;;13.70;80.40;;;;;;5096716;28;20178;-69
2021/04/13 05:28:35;;;;;;;5.13;3.03;;;13.80;80.90;;;;;;5097003;28;20202;-67
2021/04/13 05:31:01;;;;;;;3.55;2.83;;;13.80;80.90;;;;;;5095273;28;20274;-69
2021/04/13 05:33:27;;;;;;;3.83;3.05;;;13.80;80.60;;;;;;5092594;28;20722;-69
2021/04/13 05:35:54;;;;;;;3.95;3.28;;;13.80;80.90;;;;;;5096306;28;20193;-70
2021/04/13 05:38:30;;;;;;;3.33;2.83;;;13.90;80.10;;;;;;5093939;28;20201;-70
2021/04/13 05:40:58;;;;;;;4.75;3.05;;;13.90;79.40;;;;;;5087341;28;20574;-70
2021/04/13 05:43:25;;;;;;;4.40;3.47;;;14.00;79.60;;;;;;5089818;28;20178;-71
2021/04/13 05:45:51;;;;;;;2.35;2.25;;;14.00;78.80;;;;;;5097381;28;20187;-70
2021/04/13 05:48:18;;;;;;;4.18;2.75;;;14.10;79.20;;;;;;5093487;28;20196;-68
2021/04/13 05:50:45;;;;;;;3.80;2.40;;;14.10;80.30;;;;;;5097247;28;20257;-68
2021/04/13 05:53:13;;;;;;;2.65;2.53;;;14.10;80.10;;;;;;5094802;28;20232;-71
2021/04/13 05:55:39;;;;;;;3.17;2.92;;;14.10;79.50;;;;;;5074714;28;20186;-68
2021/04/13 05:58:28;;;;;;;4.68;2.40;;;14.10;79.60;;;;;;5093154;28;20182;-69
2021/04/13 06:01:48;;;;;;;4.28;3.90;;;14.00;81.40;;;;;;5131332;27;20541;-69
2021/04/13 06:04:15;;;;;;;9.45;4.45;;;13.60;82.30;;;;;;5139754;27;20187;-69
2021/04/13 06:06:40;;;;;;;7.25;4.45;;;13.30;82.60;;;;;;5139897;27;20202;-69
2021/04/13 06:09:07;;;;;;;6.07;4.25;;;13.20;83.40;;;;;;5139432;27;20185;-69
2021/04/13 06:11:33;;;;;;;4.00;3.70;;;13.00;83.40;;;;;;5139020;27;20188;-70
2021/04/13 06:14:01;;;;;;;6.88;4.15;;;12.80;84.20;;;;;;5138351;27;20187;-69
2021/04/13 06:16:34;;;;;;;3.78;3.58;;;12.60;84.50;;;;;;5140713;27;20183;-69
2021/04/13 06:19:00;;;;;;;4.03;3.80;;;12.50;84.90;;;;;;5138253;27;20185;-69
2021/04/13 06:21:26;;;;;;;5.68;3.60;;;12.50;85.50;;;;;;5138379;27;20696;-70
2021/04/13 06:23:52;;;;;;;7.70;3.88;;;12.40;85.30;;;;;;5133036;27;20177;-68
2021/04/13 06:26:18;;;;;;;8.52;3.35;;;12.40;86.10;;;;;;5088961;28;20195;-68
2021/04/13 06:28:44;;;;;;;6.40;3.95;;;12.40;85.50;;;;;;5070653;28;20178;-70
2021/04/13 06:31:09;;;;;;;5.75;3.15;;;12.60;85.20;;;;;;5088516;28;20211;-68
2021/04/13 06:33:35;;;;;;;4.70;3.03;;;12.70;84.60;;;;;;5088693;28;20197;-69
2021/04/13 06:36:02;;;;;;;2.63;2.47;;;12.90;84.90;;;;;;5090904;28;20174;-69
2021/04/13 06:38:29;;;;;;;4.68;3.33;;;12.90;83.60;;;;;;5089374;28;20689;-69
2021/04/13 06:41:16;;;;;;;3.42;3.20;;;13.00;83.30;;;;;;5088386;28;20266;-69
2021/04/13 06:43:45;;;;;;;5.00;2.90;;;13.20;82.50;;;;;;5089033;28;20606;-70
2021/04/13 06:46:36;;;;;;;3.03;2.90;;;13.30;82.30;;;;;;5087987;28;20338;-69
2021/04/13 06:49:07;;;;;;;3.92;3.28;;;13.50;81.70;;;;;;5085474;28;20559;-69
2021/04/13 06:51:58;;;;;;;4.00;3.40;;;13.50;81.90;;;;;;5073628;28;20721;-69
2021/04/13 06:54:39;;;;;;;3.85;2.65;;;13.50;81.60;;;;;;5072058;28;20189;-69
2021/04/13 06:57:31;;;;;;;2.80;2.60;;;13.40;81.30;;;;;;5071753;28;20183;-69
2021/04/13 07:00:24;;;;;;;2.35;2.05;;;13.30;80.80;;;;;;5071830;28;21034;-69
2021/04/13 07:03:14;;;;;;;4.13;2.47;;;13.30;80.50;;;;;;5075059;28;20584;-71
2021/04/13 07:05:46;;;;;;;2.50;2.30;;;13.30;80.50;;;;;;5089596;28;20186;-70
2021/04/13 07:08:42;;;;;;;2.58;2.40;;;13.40;80.70;;;;;;5090692;28;20206;-70
2021/04/13 07:11:18;;;;;;;2.67;2.58;;;13.50;80.90;;;;;;5088386;28;20212;-70
2021/04/13 07:14:18;;;;;;;2.30;2.15;;;13.50;80.20;;;;;;5075130;28;20186;-70
2021/04/13 07:17:02;;;;;;;2.45;2.25;;;13.50;81.00;;;;;;5068931;28;20175;-70
2021/04/13 07:19:43;;;;;;;2.78;2.30;;;13.50;80.70;;;;;;5072771;28;20182;-69
2021/04/13 07:22:22;;;;;;;2.85;2.50;;;13.50;81.30;;;;;;5071428;28;20189;-71
2021/04/13 07:25:07;;;;;;;5.72;2.67;;;13.60;81.50;;;;;;5074034;28;20174;-71
2021/04/13 07:28:00;;;;;;;3.00;2.70;;;13.70;81.20;;;;;;5074521;28;20213;-70
2021/04/13 07:30:33;;;;;;;4.25;2.42;;;13.70;79.80;;;;;;5073547;28;20180;-70
2021/04/13 07:33:01;;;;;;;4.90;2.00;;;13.90;80.10;;;;;;5068833;28;20175;-70
2021/04/13 07:35:34;;;;;;;3.08;2.55;;;14.00;80.50;;;;;;5066836;28;20671;-70
2021/04/13 07:38:04;;;;;;;2.72;2.55;;;14.10;80.00;;;;;;5073283;28;20699;-70
2021/04/13 07:40:34;;;;;;;4.22;2.78;;;14.20;78.80;;;;;;5074503;28;20199;-71
2021/04/13 07:43:20;;;;;;;4.03;2.55;;;14.30;79.50;;;;;;5076683;28;20186;-70
2021/04/13 07:45:49;;;;;;;3.45;2.50;;;14.40;79.00;;;;;;5069861;28;20182;-70
2021/04/13 07:48:31;;;;;;;2.65;2.47;;;14.50;79.10;;;;;;5075673;28;20208;-70
2021/04/13 07:51:16;;;;;;;2.85;2.75;;;14.70;79.60;;;;;;5074648;28;20607;-70
2021/04/13 07:53:56;;;;;;;6.43;3.25;;;14.80;78.80;;;;;;5066086;28;20199;-70
2021/04/13 07:56:26;;;;;;;5.93;3.40;;;15.10;78.60;;;;;;5074009;28;20182;-70
2021/04/13 07:59:07;;;;;;;4.95;2.80;;;15.30;77.60;;;;;;5076046;28;20264;-70
2021/04/13 08:01:33;;;;;;;2.25;2.10;;;15.50;76.50;;;;;;5071761;28;20218;-70
2021/04/13 08:03:59;;;;;;;5.55;2.20;;;15.60;75.60;;;;;;5072733;28;20232;-70
2021/04/13 08:06:27;;;;;;;3.08;2.80;;;15.80;75.50;;;;;;5074415;28;20179;-70
2021/04/13 08:09:19;;;;;;;3.78;2.30;;;15.90;75.00;;;;;;5078431;28;20178;-70
2021/04/13 08:12:03;;;;;;;3.33;1.85;;;16.20;74.80;;;;;;5071107;28;20175;-70
2021/04/13 08:14:35;;;;;;;2.50;2.30;;;16.50;74.00;;;;;;5074270;28;20208;-70
2021/04/13 08:17:21;;;;;;;5.50;2.70;;;16.80;73.70;;;;;;5073524;28;20203;-70
2021/04/13 08:20:07;;;;;;;2.45;2.25;;;17.00;72.90;;;;;;5073378;28;20277;-71
2021/04/13 08:22:56;;;;;;;4.47;2.60;;;17.20;72.50;;;;;;5075488;28;20581;-70
2021/04/13 08:25:30;;;;;;;9.38;3.33;;;17.40;71.40;;;;;;5068554;28;20179;-71
2021/04/13 08:28:29;;;;;;;3.53;2.72;;;17.70;71.60;;;;;;5072158;28;20179;-71
2021/04/13 08:32:49;;;;;;;12.20;2.35;;;17.80;70.30;;;;;;5072701;28;20213;-70
2021/04/13 08:33:48;;;;;;;7.25;2.60;;;17.90;69.80;;;;;;5069461;28;20191;-70
2021/04/13 08:36:38;;;;;;;5.03;2.42;;;17.90;70.40;;;;;;5054676;28;20269;-70
2021/04/13 08:39:11;;;;;;;2.63;2.42;;;17.90;69.60;;;;;;5067974;28;20202;-70
2021/04/13 08:41:45;;;;;;;5.25;2.92;;;18.00;69.90;;;;;;5073658;28;20205;-70
2021/04/13 08:44:34;;;;;;;2.20;2.10;;;18.10;69.20;;;;;;5053762;28;20995;-70
2021/04/13 08:47:36;;;;;;;3.13;2.58;;;18.20;69.40;;;;;;5069446;28;20752;-70
2021/04/13 08:50:18;;;;;;;2.60;1.85;;;18.40;69.30;;;;;;5024933;28;20507;-70
2021/04/13 08:52:56;;;;;;;3.85;2.35;;;18.50;68.50;;;;;;5025666;28;20205;-70
2021/04/13 08:55:40;;;;;;;3.13;2.85;;;18.60;68.00;;;;;;5030010;28;20270;-70
2021/04/13 08:58:14;;;;;;;3.17;2.88;;;18.70;67.90;;;;;;5029410;28;20191;-70
2021/04/13 09:00:55;;;;;;;3.63;2.17;;;18.80;68.10;;;;;;5028117;28;20226;-70
2021/04/13 09:03:25;;;;;;;3.08;2.17;;;18.90;66.70;;;;;;5023456;28;20238;-71
2021/04/13 09:06:34;;;;;;;4.50;2.55;;;18.80;66.80;;;;;;5029903;28;20180;-70
2021/04/13 09:09:11;;;;;;;4.70;2.50;;;18.80;67.00;;;;;;4951205;28;20187;-71
2021/04/13 09:11:51;;;;;;;5.65;2.55;;;18.70;66.60;;;;;;4951030;28;20202;-70
2021/04/13 09:14:17;;;;;;;3.33;3.03;;;18.70;67.20;;;;;;4952462;28;20208;-71
2021/04/13 09:16:55;;;;;;;2.83;2.55;;;18.70;67.30;;;;;;4949309;28;20586;-71
2021/04/13 09:19:34;;;;;;;5.13;2.83;;;18.70;67.30;;;;;;4957211;28;20317;-70
2021/04/13 09:22:14;;;;;;;2.88;2.60;;;18.70;67.40;;;;;;4954342;28;20186;-70
2021/04/13 09:24:43;;;;;;;3.85;2.72;;;18.60;67.10;;;;;;4951892;28;20241;-70
2021/04/13 09:27:26;;;;;;;3.00;2.80;;;18.60;67.60;;;;;;4981111;28;20275;-70
2021/04/13 09:29:54;;;;;;;2.55;2.30;;;18.60;67.40;;;;;;4989822;28;20186;-70
2021/04/13 09:32:23;;;;;;;3.55;2.67;;;18.50;67.80;;;;;;4988952;28;20700;-70
2021/04/13 09:35:07;;;;;;;3.75;2.72;;;18.40;68.10;;;;;;4993281;28;20277;-71
2021/04/13 09:38:09;;;;;;;2.80;2.55;;;18.40;68.10;;;;;;4992747;28;20181;-70
2021/04/13 09:40:56;;;;;;;2.88;2.33;;;18.30;68.20;;;;;;4990797;28;20290;-71
2021/04/13 09:43:39;;;;;;;2.40;2.22;;;18.20;67.70;;;;;;4995893;28;20189;-70
2021/04/13 09:46:08;;;;;;;5.32;2.63;;;18.10;68.60;;;;;;5033852;28;20249;-70
2021/04/13 09:49:02;;;;;;;2.75;2.60;;;18.00;68.50;;;;;;5074164;28;20175;-69
2021/04/13 09:52:05;;;;;;;3.83;3.03;;;17.90;69.60;;;;;;5071975;28;20837;-69
2021/04/13 09:54:46;;;;;;;4.72;3.05;;;17.80;69.40;;;;;;5066976;28;20187;-70
2021/04/13 09:57:47;;;;;;;4.50;3.00;;;17.70;68.80;;;;;;5068661;28;20174;-70
2021/04/13 10:00:56;;;;;;;3.42;2.90;;;17.70;69.00;;;;;;5028246;28;20220;-70
2021/04/13 10:03:58;;;;;;;2.60;2.47;;;17.60;69.50;;;;;;4963575;28;20251;-70
2021/04/13 10:06:31;;;;;;;4.43;3.00;;;17.40;70.30;;;;;;4968534;28;20189;-69
2021/04/13 10:09:24;;;;;;;3.00;2.80;;;17.30;70.60;;;;;;4971775;28;20186;-69
2021/04/13 10:11:58;;;;;;;2.25;2.08;;;17.00;72.00;;;;;;4970226;28;20276;-69
2021/04/13 10:14:32;;;;;;;5.68;2.05;;;16.90;71.60;;;;;;4964757;28;20733;-71
2021/04/13 10:17:20;;;;;;;9.57;2.42;;;16.50;72.90;;;;;;4965895;28;20690;-71
2021/04/13 10:20:04;;;;;;;2.38;1.83;;;16.50;72.70;;;;;;4973636;28;20614;-71
2021/04/13 10:22:41;;;;;;;3.63;2.20;;;16.40;73.70;;;;;;4966227;28;20226;-71
2021/04/13 10:25:26;;;;;;;2.83;2.30;;;16.40;74.60;;;;;;4975708;28;20673;-69
2021/04/13 10:28:09;;;;;;;2.28;1.73;;;16.30;76.20;;;;;;4969995;28;20198;-69
2021/04/13 10:31:11;;;;;;;6.50;2.50;;;16.30;77.50;;;;;;4965830;28;20198;-69
2021/04/13 10:34:15;;;;;;;5.18;1.98;;;16.30;77.80;;;;;;4969349;28;20234;-69
2021/04/13 10:37:03;;;;;;;3.15;1.85;;;16.20;78.50;;;;;;4975165;28;20653;-69
2021/04/13 10:39:56;;;;;;;1.90;1.80;;;16.20;77.90;;;;;;4994331;28;20633;-69
2021/04/13 10:42:54;;;;;;;5.55;2.58;;;16.20;79.40;;;;;;5069213;28;20553;-69
2021/04/13 10:45:53;;;;;;;3.80;2.83;;;16.00;79.80;;;;;;5070459;28;20175;-71
2021/04/13 10:48:46;;;;;;;4.60;2.83;;;15.90;80.30;;;;;;5073814;28;20897;-70
2021/04/13 10:51:45;;;;;;;2.72;2.55;;;15.70;81.70;;;;;;5076165;28;20193;-70
2021/04/13 10:54:33;;;;;;;2.47;2.25;;;15.50;82.40;;;;;;5074585;28;20186;-70
2021/04/13 10:57:26;;;;;;;4.60;3.22;;;15.40;82.30;;;;;;5075487;28;20189;-70
2021/04/13 11:00:05;;;;;;;2.63;2.40;;;15.40;82.70;;;;;;5072075;28;21062;-70
2021/04/13 11:03:02;;;;;;;5.00;2.05;;;15.50;80.70;;;;;;5074194;28;20723;-70
2021/04/13 11:05:34;;;;;;;2.95;1.17;;;15.60;80.00;;;;;;5075552;28;20182;-70
2021/04/13 11:08:27;;;;;;;1.20;1.10;;;15.60;77.00;;;;;;5076235;28;20615;-70
2021/04/13 11:11:12;;;;;;;1.27;1.15;;;15.50;74.90;;;;;;5073376;28;20247;-70
2021/04/13 11:14:08;;;;;;;4.78;1.48;;;15.50;75.00;;;;;;5076174;28;20183;-70
2021/04/13 11:17:12;;;;;;;7.00;1.70;;;15.50;75.20;;;;;;5075928;28;20722;-70
2021/04/13 11:20:08;;;;;;;5.43;2.20;;;15.40;78.60;;;;;;5074031;28;20752;-70
2021/04/13 11:22:39;;;;;;;2.30;2.08;;;15.30;81.60;;;;;;5073155;28;20175;-70
2021/04/13 11:25:26;;;;;;;3.92;3.38;;;15.30;82.30;;;;;;5073529;28;20184;-69
2021/04/13 11:28:25;;;;;;;3.75;3.47;;;15.30;83.20;;;;;;5075280;28;20630;-71
2021/04/13 11:31:25;;;;;;;3.22;2.85;;;15.30;83.40;;;;;;5073773;28;20189;-71
2021/04/13 11:34:18;;;;;;;5.03;2.58;;;15.40;83.40;;;;;;5074704;28;20175;-71
2021/04/13 11:37:08;;;;;;;3.20;2.63;;;15.40;83.70;;;;;;5075423;28;20660;-71
2021/04/13 11:39:41;;;;;;;11.95;3.38;;;15.50;84.40;;;;;;5074574;28;20178;-71
2021/04/13 11:42:06;;;;;;;9.05;3.42;;;15.50;83.60;;;;;;5073295;28;20265;-71
2021/04/13 11:44:41;;;;;;;4.25;2.28;;;15.60;83.50;;;;;;5075192;28;20281;-70
2021/04/13 11:47:27;;;;;;;2.38;2.05;;;15.70;83.50;;;;;;5070891;28;20225;-71
2021/04/13 11:50:04;;;;;;;3.08;1.90;;;15.70;82.80;;;;;;5074224;28;20179;-71
2021/04/13 11:52:39;;;;;;;2.25;2.10;;;15.70;81.20;;;;;;5073852;28;20186;-70
2021/04/13 11:55:28;;;;;;;2.00;1.90;;;15.60;81.50;;;;;;5076145;28;20186;-71
2021/04/13 11:58:21;;;;;;;2.60;1.80;;;15.40;81.50;;;;;;5074541;28;20261;-70
2021/04/13 12:00:54;;;;;;;13.13;2.78;;;15.10;81.80;;;;;;5072924;28;20221;-70
2021/04/13 12:03:55;;;;;;;5.20;2.53;;;15.00;82.30;;;;;;5071771;28;20305;-70
2021/04/13 12:07:04;;;;;;;2.88;2.35;;;15.00;82.70;;;;;;5001432;28;20650;-68
2021/04/13 12:10:01;;;;;;;7.93;2.40;;;15.00;83.20;;;;;;5001564;28;20181;-72
2021/04/13 12:12:30;;;;;;;1.50;1.50;;;15.00;82.40;;;;;;5000828;28;20185;-71
2021/04/13 12:17:55;;;;;;;1.27;1.13;;;15.00;79.50;;;;;;5001437;28;20283;-71
2021/04/13 12:20:30;;;;;;;1.50;1.40;;;14.80;79.80;;;;;;5000033;28;20242;-71
2021/04/13 12:23:02;;;;;;;1.45;1.45;;;14.70;80.30;;;;;;5001086;28;20188;-70
2021/04/13 12:26:05;;;;;;;1.38;1.27;;;14.70;79.40;;;;;;5001311;28;20733;-70
2021/04/13 12:28:32;;;;;;;3.35;1.27;;;14.50;80.50;;;;;;4941601;28;20968;-71
2021/04/13 12:31:13;;;;;;;1.85;1.20;;;14.50;80.80;;;;;;4943373;28;20347;-71
2021/04/13 12:33:48;;;;;;;1.40;1.30;;;14.50;80.30;;;;;;4942587;28;20187;-70
2021/04/13 12:36:41;;;;;;;1.25;1.10;;;14.50;80.20;;;;;;4942240;28;20665;-71
2021/04/13 12:39:09;;;;;;;1.02;1.02;;;14.60;80.50;;;;;;4942936;29;20191;-71
2021/04/13 12:41:57;;;;;;;1.13;1.08;;;14.70;80.10;;;;;;4941926;29;20215;-71
2021/04/13 12:44:27;;;;;;;1.08;1.08;;;14.80;79.40;;;;;;5008044;28;20628;-71
2021/04/13 12:46:59;;;;;;;3.03;1.23;;;15.00;79.30;;;;;;5008055;28;20212;-70
2021/04/13 12:49:31;;;;;;;3.80;1.35;;;15.10;79.50;;;;;;5010727;28;20202;-70
2021/04/13 12:52:14;;;;;;;10.98;1.92;;;15.40;79.30;;;;;;5009190;28;20185;-70
2021/04/13 12:54:44;;;;;;;2.67;1.08;;;15.40;77.30;;;;;;4994802;28;20989;-70
2021/04/13 12:57:19;;;;;;;1.00;0.82;;;15.30;76.30;;;;;;5010106;28;20193;-70
2021/04/13 12:59:46;;;;;;;1.33;0.98;;;15.30;76.50;;;;;;5007771;28;20199;-70
2021/04/13 13:02:36;;;;;;;0.95;0.95;;;15.30;76.90;;;;;;5033147;28;20639;-70
2021/04/13 13:05:17;;;;;;;5.07;0.93;;;15.40;76.20;;;;;;5072468;28;20185;-70
2021/04/13 13:07:52;;;;;;;0.82;0.82;;;15.50;75.70;;;;;;5070795;28;20236;-70
2021/04/13 13:10:18;;;;;;;0.82;0.75;;;15.40;75.20;;;;;;5072116;28;20258;-70
2021/04/13 13:12:44;;;;;;;1.92;0.93;;;15.20;76.10;;;;;;5071471;28;20217;-70
2021/04/13 13:15:12;;;;;;;2.15;0.77;;;15.20;76.40;;;;;;5072433;28;20265;-70
2021/04/13 13:17:49;;;;;;;0.70;0.70;;;15.20;76.70;;;;;;5070662;28;20262;-70
2021/04/13 13:20:28;;;;;;;0.73;0.73;;;15.20;75.80;;;;;;5073036;28;20297;-70
2021/04/13 13:22:54;;;;;;;2.78;0.75;;;15.40;76.20;;;;;;5072779;28;20186;-69
2021/04/13 13:25:38;;;;;;;0.95;0.50;;;15.50;76.50;;;;;;5072002;28;20359;-70
2021/04/13 13:28:19;;;;;;;2.60;1.13;;;15.40;76.00;;;;;;5074292;28;20634;-70
2021/04/13 13:30:46;;;;;;;0.70;0.70;;;15.30;75.60;;;;;;5072543;28;20181;-70
2021/04/13 13:33:13;;;;;;;1.17;1.08;;;15.20;76.40;;;;;;5071543;28;20185;-70
2021/04/13 13:35:39;;;;;;;1.00;0.70;;;15.10;76.70;;;;;;5071238;28;20650;-71
2021/04/13 13:38:05;;;;;;;0.98;0.73;;;15.10;77.50;;;;;;5069983;28;20266;-70
2021/04/13 13:40:38;;;;;;;4.05;1.10;;;15.10;78.00;;;;;;5072454;28;20287;-70
2021/04/13 13:43:06;;;;;;;2.38;1.00;;;15.00;77.50;;;;;;5072866;28;20309;-70